Danville, New Hampshire
Current Conditions -  °F | °C
As of 3:54 PM on Saturday 25 Oct 2014 (Local Time) from KLWM Reporting Station
Clear Clear  
Wind Chill: 64°   Ceiling: Unl
Heat Index: 64°   Visibility: 10mi
Dew Point: 40°   Wind: 13mph
Humidity: 41%   Direction: 250°WSW
Pressure: 29.6"   Gusts: NA
Location:  42.91°N, 71.12°W
Report Text: KLWM 251954Z 25011KT 10SM CLR 18/04 A2960 RMK AO2 SLP023 T01780044
Loading
Personal Weather Stations






























Interactive Weather Map
Tropical Storm Tracking
New forecast layout! Learn more

10-Day Weather Forecast

Advertisements
Track Severe Weather on mobile